createdAt,value
2023-06-10T00:00:42.858Z,4.10
2023-06-10T00:03:45.141Z,4.20
2023-06-10T00:06:49.747Z,5.50
2023-06-10T00:09:52.775Z,4.37
2023-06-10T00:12:54.694Z,4.87
2023-06-10T00:15:56.682Z,4.83
2023-06-10T00:19:02.192Z,4.67
2023-06-10T00:22:04.392Z,3.87
2023-06-10T00:25:08.681Z,3.93
2023-06-10T00:28:11.718Z,4.60
2023-06-10T00:31:13.659Z,4.57
2023-06-10T00:34:16.140Z,4.00
2023-06-10T00:37:18.079Z,4.50
2023-06-10T00:40:20.142Z,4.37
2023-06-10T00:43:22.122Z,3.93
2023-06-10T00:46:25.814Z,4.70
2023-06-10T00:49:28.795Z,4.03
2023-06-10T00:52:31.819Z,4.37
2023-06-10T00:55:34.165Z,3.93
2023-06-10T00:58:37.181Z,4.40
2023-06-10T01:01:40.803Z,4.67
2023-06-10T01:04:42.955Z,4.80
2023-06-10T01:07:54.698Z,4.37
2023-06-10T01:10:59.932Z,4.60
2023-06-10T01:14:04.428Z,4.73
2023-06-10T01:17:08.222Z,4.67
2023-06-10T01:20:13.537Z,4.50
2023-06-10T01:23:16.238Z,4.53
2023-06-10T01:26:19.437Z,4.33
2023-06-10T01:29:33.030Z,4.37
2023-06-10T01:32:39.678Z,4.27
2023-06-10T01:35:43.493Z,4.13
2023-06-10T01:38:47.336Z,4.43
2023-06-10T01:41:50.859Z,4.60
2023-06-10T01:44:53.383Z,4.30
2023-06-10T01:47:55.391Z,3.77
2023-06-10T01:50:57.479Z,4.40
2023-06-10T01:53:59.884Z,4.40
2023-06-10T01:57:03.388Z,4.30
2023-06-10T02:00:06.944Z,4.23
2023-06-10T02:03:09.074Z,4.37
2023-06-10T02:06:13.213Z,5.20
2023-06-10T02:09:15.627Z,5.00
2023-06-10T02:12:18.399Z,4.40
2023-06-10T02:15:20.721Z,4.43
2023-06-10T02:18:23.187Z,4.37
2023-06-10T02:21:25.239Z,4.67
2023-06-10T02:24:27.214Z,4.23
2023-06-10T02:27:29.178Z,4.07
2023-06-10T02:30:31.188Z,4.70
2023-06-10T02:33:35.217Z,4.40
2023-06-10T02:36:37.190Z,4.60
2023-06-10T02:39:39.165Z,5.00
2023-06-10T02:42:41.147Z,4.87
2023-06-10T02:45:43.161Z,4.83
2023-06-10T02:48:45.269Z,4.60
2023-06-10T02:51:47.342Z,5.00
2023-06-10T02:54:49.351Z,4.80
2023-06-10T02:57:51.878Z,4.53
2023-06-10T03:00:53.975Z,4.40
2023-06-10T03:03:57.836Z,5.13
2023-06-10T03:07:05.073Z,4.83
2023-06-10T03:10:08.041Z,4.30
2023-06-10T03:13:11.471Z,4.87
2023-06-10T03:16:13.875Z,4.57
2023-06-10T03:19:16.429Z,4.60
2023-06-10T03:22:18.730Z,5.27
2023-06-10T03:25:22.373Z,5.33
2023-06-10T03:28:24.410Z,4.73
2023-06-10T03:31:26.382Z,4.87
2023-06-10T03:34:29.140Z,4.70
2023-06-10T03:37:31.082Z,5.70
2023-06-10T03:40:33.523Z,4.43
2023-06-10T03:43:35.551Z,4.57
2023-06-10T03:46:37.563Z,4.73
2023-06-10T03:49:39.500Z,4.57
2023-06-10T03:52:42.472Z,4.87
2023-06-10T03:55:44.937Z,4.83
2023-06-10T03:58:47.756Z,4.37
2023-06-10T04:01:49.938Z,4.30
2023-06-10T04:04:52.715Z,4.53
2023-06-10T04:07:54.769Z,4.67
2023-06-10T04:10:57.530Z,3.87
2023-06-10T04:13:59.422Z,4.30
2023-06-10T04:17:01.386Z,4.33
2023-06-10T04:20:08.072Z,4.20
2023-06-10T04:23:10.155Z,4.00
2023-06-10T04:26:15.098Z,4.30
2023-06-10T04:29:17.070Z,4.27
2023-06-10T04:32:19.147Z,4.10
2023-06-10T04:35:21.729Z,4.30
2023-06-10T04:38:24.198Z,3.77
2023-06-10T04:41:27.152Z,3.73
2023-06-10T04:44:29.135Z,4.20
2023-06-10T04:47:34.630Z,4.17
2023-06-10T04:50:36.764Z,4.37
2023-06-10T04:53:39.007Z,4.33
2023-06-10T04:56:41.289Z,4.70
2023-06-10T04:59:43.308Z,4.57
2023-06-10T05:02:46.377Z,4.10
2023-06-10T05:05:48.675Z,4.40
2023-06-10T05:08:50.802Z,4.33
2023-06-10T05:11:54.514Z,4.97
2023-06-10T05:14:56.422Z,4.60
2023-06-10T05:17:59.919Z,4.27
2023-06-10T05:21:01.896Z,4.43
2023-06-10T05:24:04.185Z,4.13
2023-06-10T05:27:08.005Z,3.83
2023-06-10T05:30:11.959Z,4.23
2023-06-10T05:33:14.115Z,4.07
2023-06-10T05:36:16.178Z,3.67
2023-06-10T05:39:18.151Z,3.47
2023-06-10T05:42:20.415Z,4.40
2023-06-10T05:45:22.492Z,4.57
2023-06-10T05:48:24.472Z,4.77
2023-06-10T05:51:26.904Z,4.50
2023-06-10T05:54:30.339Z,5.90
2023-06-10T05:57:32.813Z,6.03
2023-06-10T06:00:37.366Z,6.27
2023-06-10T06:03:40.551Z,6.40
2023-06-10T06:06:42.654Z,7.10
2023-06-10T06:09:44.569Z,6.57
2023-06-10T06:12:46.898Z,6.17
2023-06-10T06:15:49.061Z,6.90
2023-06-10T06:18:52.277Z,5.60
2023-06-10T06:21:54.200Z,6.03
2023-06-10T06:24:56.344Z,5.67
2023-06-10T06:27:58.517Z,6.03
2023-06-10T06:31:00.583Z,6.47
2023-06-10T06:34:02.613Z,6.30
2023-06-10T06:37:04.978Z,6.03
2023-06-10T06:40:07.976Z,5.80
2023-06-10T06:43:10.259Z,5.50
2023-06-10T06:46:12.986Z,5.17
2023-06-10T06:49:16.937Z,5.50
2023-06-10T06:52:18.975Z,6.03
2023-06-10T06:55:21.248Z,5.30
2023-06-10T06:58:23.161Z,5.63
2023-06-10T07:01:25.382Z,5.80
2023-06-10T07:04:27.318Z,5.90
2023-06-10T07:07:29.792Z,5.07
2023-06-10T07:10:32.538Z,5.63
2023-06-10T07:13:34.503Z,5.20
2023-06-10T07:16:36.556Z,5.47
2023-06-10T07:19:38.575Z,5.07
2023-06-10T07:22:42.256Z,5.03
2023-06-10T07:25:44.297Z,5.20
2023-06-10T07:28:46.656Z,5.07
2023-06-10T07:31:48.555Z,5.25
2023-06-10T07:34:51.866Z,5.10
2023-06-10T07:37:53.876Z,5.03
2023-06-10T07:40:56.143Z,5.07
2023-06-10T07:43:58.233Z,5.10
2023-06-10T07:47:00.395Z,4.80
2023-06-10T07:50:03.330Z,4.22
2023-06-10T07:53:05.725Z,3.83
2023-06-10T07:56:07.779Z,4.13
2023-06-10T07:59:09.878Z,4.40
2023-06-10T08:02:11.873Z,4.47
2023-06-10T08:05:14.898Z,4.30
2023-06-10T08:08:17.073Z,4.80
2023-06-10T08:11:19.094Z,3.90
2023-06-10T08:14:21.142Z,4.60
2023-06-10T08:17:23.172Z,4.43
2023-06-10T08:20:25.929Z,4.88
2023-06-10T08:23:28.052Z,4.88
2023-06-10T08:26:30.081Z,5.30
2023-06-10T08:29:33.225Z,4.82
2023-06-10T08:32:35.302Z,5.00
2023-06-10T08:35:37.330Z,5.28
2023-06-10T08:38:40.286Z,5.90
2023-06-10T08:41:49.029Z,5.68
2023-06-10T08:44:56.700Z,5.70
2023-06-10T08:47:59.360Z,5.68
2023-06-10T08:51:02.097Z,5.25
2023-06-10T08:54:13.029Z,5.65
2023-06-10T08:57:16.277Z,5.40
2023-06-10T09:00:18.501Z,6.45
2023-06-10T09:03:21.662Z,5.32
2023-06-10T09:06:24.137Z,5.72
2023-06-10T09:09:27.163Z,5.85
2023-06-10T09:12:32.200Z,6.70
2023-06-10T09:15:34.288Z,6.38
2023-06-10T09:18:36.519Z,6.30
2023-06-10T09:21:38.581Z,6.53
2023-06-10T09:24:41.660Z,6.65
2023-06-10T09:27:55.183Z,6.50
2023-06-10T09:31:05.791Z,6.88
2023-06-10T09:34:13.175Z,6.22
2023-06-10T09:37:21.883Z,6.57
2023-06-10T09:40:24.036Z,7.10
2023-06-10T09:43:45.189Z,7.90
2023-06-10T09:46:48.767Z,7.15
2023-06-10T09:49:55.281Z,7.45
2023-06-10T09:52:57.696Z,6.82
2023-06-10T09:55:59.703Z,6.78
2023-06-10T09:59:01.618Z,6.97
2023-06-10T10:02:06.863Z,6.40
2023-06-10T10:05:10.728Z,6.68
2023-06-10T10:08:13.672Z,6.40
2023-06-10T10:11:20.879Z,6.30
2023-06-10T10:14:23.561Z,6.03
2023-06-10T10:17:26.407Z,6.55
2023-06-10T10:20:31.267Z,6.25
2023-06-10T10:23:59.375Z,5.82
2023-06-10T10:27:04.829Z,5.68
2023-06-10T10:30:11.183Z,5.93
2023-06-10T10:33:16.211Z,5.70
2023-06-10T10:36:19.898Z,5.53
2023-06-10T10:39:22.310Z,5.97
2023-06-10T10:42:24.621Z,6.07
2023-06-10T10:45:29.946Z,5.78
2023-06-10T10:48:38.620Z,5.72
2023-06-10T10:51:56.769Z,6.07
2023-06-10T10:54:58.676Z,5.18
2023-06-10T10:58:09.791Z,5.57
2023-06-10T11:01:14.909Z,5.07
2023-06-10T11:04:19.697Z,5.45
2023-06-10T11:07:23.164Z,5.25
2023-06-10T11:10:33.294Z,5.13
2023-06-10T11:13:35.321Z,5.20
2023-06-10T11:16:44.980Z,4.72
2023-06-10T11:19:48.250Z,4.35
2023-06-10T11:23:04.165Z,4.05
2023-06-10T11:26:35.869Z,4.10
2023-06-10T11:29:38.249Z,3.22
2023-06-10T11:32:40.895Z,3.63
2023-06-10T11:35:44.082Z,4.00
2023-06-10T11:38:46.394Z,4.05
2023-06-10T11:41:49.379Z,4.18
2023-06-10T11:44:52.711Z,4.15
2023-06-10T11:48:01.447Z,4.03
2023-06-10T11:51:08.769Z,4.63
2023-06-10T11:54:11.024Z,4.47
2023-06-10T11:57:13.148Z,3.95
2023-06-10T12:00:16.329Z,4.22
2023-06-10T12:03:19.314Z,4.03
2023-06-10T12:06:21.678Z,4.28
2023-06-10T12:09:31.388Z,3.95
2023-06-10T12:12:36.318Z,4.07
2023-06-10T12:15:38.517Z,3.90
2023-06-10T12:18:40.523Z,3.53
2023-06-10T12:21:42.855Z,4.55
2023-06-10T12:24:46.707Z,3.70
2023-06-10T12:27:57.352Z,3.70
2023-06-10T12:31:09.779Z,4.20
2023-06-10T12:34:12.475Z,3.95
2023-06-10T12:37:14.922Z,3.90
2023-06-10T12:40:17.040Z,3.70
2023-06-10T12:43:22.494Z,3.83
2023-06-10T12:46:26.067Z,5.10
2023-06-10T12:49:28.150Z,4.68
2023-06-10T12:52:30.394Z,4.30
2023-06-10T12:55:33.680Z,4.57
2023-06-10T12:58:35.774Z,4.38
2023-06-10T13:01:39.642Z,4.72
2023-06-10T13:04:42.219Z,3.75
2023-06-10T13:07:46.000Z,4.43
2023-06-10T13:10:50.408Z,4.35
2023-06-10T13:13:52.314Z,3.83
2023-06-10T13:16:56.504Z,3.92
2023-06-10T13:19:58.490Z,4.15
2023-06-10T13:23:00.494Z,4.35
2023-06-10T13:26:04.541Z,4.15
2023-06-10T13:29:06.636Z,4.50
2023-06-10T13:32:09.460Z,4.65
2023-06-10T13:35:11.747Z,5.25
2023-06-10T13:38:14.009Z,5.25
2023-06-10T13:41:16.112Z,5.63
2023-06-10T13:44:18.241Z,5.22
2023-06-10T13:47:20.766Z,6.05
2023-06-10T13:50:22.657Z,5.65
2023-06-10T13:53:24.654Z,5.35
2023-06-10T13:56:26.804Z,6.95
2023-06-10T13:59:29.013Z,6.70
2023-06-10T14:02:31.635Z,5.90
2023-06-10T14:05:35.980Z,6.22
2023-06-10T14:08:37.967Z,6.65
2023-06-10T14:11:40.103Z,5.85
2023-06-10T14:14:42.924Z,4.57
2023-06-10T14:17:45.208Z,4.70
2023-06-10T14:20:47.440Z,4.53
2023-06-10T14:23:50.653Z,4.80
2023-06-10T14:26:52.730Z,5.83
2023-06-10T14:29:55.276Z,6.97
2023-06-10T14:32:57.233Z,6.13
2023-06-10T14:35:59.318Z,5.57
2023-06-10T14:39:01.368Z,5.68
2023-06-10T14:42:04.071Z,5.85
2023-06-10T14:45:07.559Z,5.97
2023-06-10T14:48:10.110Z,5.78
2023-06-10T14:51:12.539Z,5.18
2023-06-10T14:54:14.492Z,5.90
2023-06-10T14:57:16.883Z,4.70
2023-06-10T15:00:23.527Z,4.72
2023-06-10T15:03:25.589Z,4.55
2023-06-10T15:06:27.658Z,5.10
2023-06-10T15:09:30.208Z,5.10
2023-06-10T15:12:32.278Z,3.67
2023-06-10T15:15:34.244Z,4.00
2023-06-10T15:18:36.273Z,3.70
2023-06-10T15:21:38.638Z,3.25
2023-06-10T15:24:40.722Z,2.95
2023-06-10T15:27:43.089Z,2.80
2023-06-10T15:30:45.064Z,3.53
2023-06-10T15:33:47.954Z,3.72
2023-06-10T15:36:50.265Z,3.80
2023-06-10T15:39:52.271Z,3.58
2023-06-10T15:42:54.271Z,4.30
2023-06-10T15:45:56.699Z,4.03
2023-06-10T15:48:59.005Z,3.60
2023-06-10T15:52:01.382Z,4.13
2023-06-10T15:55:04.128Z,3.78
2023-06-10T15:58:07.672Z,4.07
2023-06-10T16:01:10.832Z,4.10
2023-06-10T16:04:13.162Z,3.92
2023-06-10T16:07:15.152Z,4.28
2023-06-10T16:10:17.290Z,4.32
2023-06-10T16:13:19.458Z,4.57
2023-06-10T16:16:22.769Z,5.10
2023-06-10T16:19:28.634Z,4.85
2023-06-10T16:22:30.659Z,4.85
2023-06-10T16:25:35.087Z,4.35
2023-06-10T16:28:37.331Z,4.85
2023-06-10T16:31:39.384Z,5.07
2023-06-10T16:34:42.175Z,4.75
2023-06-10T16:37:44.155Z,4.47
2023-06-10T16:40:46.215Z,4.32
2023-06-10T16:43:48.250Z,5.03
2023-06-10T16:46:50.288Z,5.30
2023-06-10T16:49:52.983Z,5.07
2023-06-10T16:52:59.439Z,6.20
2023-06-10T16:56:03.605Z,5.82
2023-06-10T16:59:12.117Z,6.03
2023-06-10T17:02:14.157Z,6.28
2023-06-10T17:05:16.663Z,6.20
2023-06-10T17:08:19.092Z,6.78
2023-06-10T17:11:22.737Z,6.78
2023-06-10T17:14:30.085Z,6.83
2023-06-10T17:17:32.252Z,6.50
2023-06-10T17:20:34.548Z,5.90
2023-06-10T17:23:36.735Z,6.57
2023-06-10T17:26:39.208Z,7.40
2023-06-10T17:29:41.503Z,6.33
2023-06-10T17:32:45.242Z,6.17
2023-06-10T17:35:48.085Z,5.50
2023-06-10T17:38:49.978Z,5.53
2023-06-10T17:41:52.148Z,5.77
2023-06-10T17:44:54.332Z,5.93
2023-06-10T17:47:56.354Z,5.93
2023-06-10T17:50:58.469Z,5.03
2023-06-10T17:54:00.707Z,4.13
2023-06-10T17:57:02.674Z,5.40
2023-06-10T18:00:05.401Z,5.30
2023-06-10T18:03:07.427Z,5.53
2023-06-10T18:06:09.554Z,4.93
2023-06-10T18:09:12.869Z,6.10
2023-06-10T18:12:15.296Z,5.17
2023-06-10T18:15:17.302Z,4.97
2023-06-10T18:18:20.160Z,5.20
2023-06-10T18:21:22.272Z,5.33
2023-06-10T18:24:24.290Z,5.20
2023-06-10T18:27:26.835Z,5.30
2023-06-10T18:30:28.754Z,5.60
2023-06-10T18:33:32.140Z,5.93
2023-06-10T18:36:34.212Z,6.47
2023-06-10T18:39:36.938Z,6.00
2023-06-10T18:42:38.916Z,6.10
2023-06-10T18:45:43.476Z,5.80
2023-06-10T18:48:46.605Z,6.57
2023-06-10T18:51:48.756Z,6.27
2023-06-10T18:54:50.888Z,6.33
2023-06-10T18:57:52.931Z,6.83
2023-06-10T19:00:55.034Z,6.37
2023-06-10T19:03:57.266Z,6.60
2023-06-10T19:06:59.567Z,6.97
2023-06-10T19:10:02.400Z,6.73
2023-06-10T19:13:04.452Z,6.10
2023-06-10T19:16:09.073Z,6.00
2023-06-10T19:19:11.276Z,7.00
2023-06-10T19:22:13.356Z,6.90
2023-06-10T19:25:15.385Z,6.87
2023-06-10T19:28:17.365Z,6.67
2023-06-10T19:31:19.352Z,6.70
2023-06-10T19:34:21.479Z,9.03
2023-06-10T19:37:23.436Z,6.73
2023-06-10T19:40:26.050Z,6.87
2023-06-10T19:43:28.325Z,6.67
2023-06-10T19:46:30.419Z,6.90
2023-06-10T19:49:32.362Z,6.83
2023-06-10T19:52:34.407Z,6.83
2023-06-10T19:55:38.460Z,6.67
2023-06-10T19:58:40.983Z,6.17
2023-06-10T20:01:43.359Z,7.20
2023-06-10T20:04:45.382Z,7.73
2023-06-10T20:07:47.278Z,6.83
2023-06-10T20:10:49.664Z,7.00
2023-06-10T20:13:51.608Z,5.97
2023-06-10T20:16:53.855Z,6.07
2023-06-10T20:19:56.224Z,6.00
2023-06-10T20:22:58.214Z,6.87
2023-06-10T20:26:00.184Z,6.73
2023-06-10T20:29:03.266Z,6.83
2023-06-10T20:32:05.547Z,6.53
2023-06-10T20:35:08.668Z,6.43
2023-06-10T20:38:12.441Z,5.77
2023-06-10T20:41:15.838Z,6.03
2023-06-10T20:44:17.830Z,5.67
2023-06-10T20:47:19.978Z,6.17
2023-06-10T20:50:22.695Z,6.33
2023-06-10T20:53:25.094Z,6.30
2023-06-10T20:56:28.114Z,6.17
2023-06-10T20:59:30.366Z,6.50
2023-06-10T21:02:32.774Z,5.97
2023-06-10T21:05:35.211Z,5.60
2023-06-10T21:08:37.207Z,5.87
2023-06-10T21:11:39.211Z,5.83
2023-06-10T21:14:41.164Z,6.37
2023-06-10T21:17:43.158Z,6.47
2023-06-10T21:20:45.100Z,5.43
2023-06-10T21:23:47.327Z,6.33
2023-06-10T21:26:49.354Z,6.40
2023-06-10T21:29:52.722Z,6.07
2023-06-10T21:32:55.740Z,5.40
2023-06-10T21:35:59.310Z,5.83
2023-06-10T21:39:01.245Z,4.83
2023-06-10T21:42:03.256Z,5.33
2023-06-10T21:45:05.711Z,5.83
2023-06-10T21:48:09.085Z,5.47
2023-06-10T21:51:11.044Z,6.10
2023-06-10T21:54:13.834Z,5.43
2023-06-10T21:57:15.843Z,5.77
2023-06-10T22:00:18.734Z,5.30
2023-06-10T22:03:20.921Z,5.93
2023-06-10T22:06:23.229Z,5.67
2023-06-10T22:09:25.258Z,6.00
2023-06-10T22:12:27.326Z,5.73
2023-06-10T22:15:29.389Z,6.47
2023-06-10T22:18:32.069Z,6.10
2023-06-10T22:21:36.156Z,5.37
2023-06-10T22:24:38.415Z,6.20
2023-06-10T22:27:40.297Z,6.60
2023-06-10T22:30:43.247Z,6.33
2023-06-10T22:33:45.587Z,6.40
2023-06-10T22:36:47.716Z,6.60
2023-06-10T22:39:49.754Z,5.97
2023-06-10T22:42:51.757Z,5.70
2023-06-10T22:45:53.750Z,6.23
2023-06-10T22:48:56.120Z,5.87
2023-06-10T22:51:58.140Z,6.77
2023-06-10T22:55:00.177Z,7.07
2023-06-10T22:58:02.174Z,6.43
2023-06-10T23:01:04.221Z,6.67
2023-06-10T23:04:06.290Z,6.47
2023-06-10T23:07:10.597Z,6.73
2023-06-10T23:10:13.400Z,6.40
2023-06-10T23:13:15.599Z,7.80
2023-06-10T23:16:18.036Z,7.93
2023-06-10T23:19:20.638Z,6.33
2023-06-10T23:22:26.345Z,5.17
2023-06-10T23:25:29.312Z,6.03
2023-06-10T23:28:31.360Z,6.20
2023-06-10T23:31:33.419Z,5.43
2023-06-10T23:34:38.399Z,5.97
2023-06-10T23:37:40.338Z,6.17
2023-06-10T23:40:42.387Z,5.60
2023-06-10T23:43:44.327Z,5.87
2023-06-10T23:46:46.390Z,6.00
2023-06-10T23:49:48.430Z,5.97
2023-06-10T23:52:51.547Z,6.87
2023-06-10T23:55:53.718Z,5.80
2023-06-10T23:58:56.301Z,5.67
